• Join FlightAware (Why Join?)
  • Login
  • US Flag 
12:20PM EDT


 

Airport Tracker/Info


-or-


 

Live Flight TrackerFlight Track Log ✈ SWA1258 ✈ 24-Apr-2012 ✈ KSAN - KSMF

Flight Track Log - Related Links

Times and Time Zones

All times are in EDT time to prevent confusion due to time zone crossing. See the SWA1258 flight status page for this flight to view local times or setup timezone preferences in your user account.

Time Position Orientation Groundspeed Altitude Reporting Facility
EDT Latitude Longitude Course Direction KTS MPH feet Rate Location/Type
11:06PM 32.9067 -117.4382 133° Southeast  Level FlightAware Approximate
11:07PM 32.9824 -117.4839 138° Southeast  Level FlightAware Approximate
11:08PM 33.0086 -117.5787 132° Southeast  Level FlightAware Approximate
11:09PM 33.0850 -117.6230 136° Southeast  Level FlightAware Approximate
11:10PM 33.1014 -117.7180 131° Southeast  Level FlightAware Approximate
11:11PM 33.1475 -117.7904 131° Southeast  Level FlightAware Approximate
11:12PM 33.1931 -117.8724 130° Southeast  Level FlightAware Approximate
11:13PM 33.2168 -117.9672 127° Southeast  Level FlightAware Approximate
11:14PM 33.2954 -118.0058 130° Southeast  Level FlightAware Approximate
11:15PM 32.7428 -117.2300 290° West 164 189 2,300  Level Los Angeles Center
11:16PM 32.7650 -117.3042 288° West 242 278 6,200 3,780 Climbing Los Angeles Center
11:17PM 32.7811 -117.3636 313° West 256 295 9,900 3,600 Climbing Los Angeles Center
11:18PM 32.8450 -117.4439 315° West 289 333 13,500 3,780 Climbing Los Angeles Center
11:19PM 32.9169 -117.5289 316° Northwest 320 368 17,500 3,780 Climbing Los Angeles Center
11:20PM 32.9931 -117.6169 329° Northwest 355 409 21,100 3,540 Climbing Los Angeles Center
11:21PM 33.0967 -117.6906 336° Northwest 384 442 24,600 2,880 Climbing Los Angeles Center
11:22PM 33.2064 -117.7497 337° Northwest 402 463 26,900 2,160 Climbing Los Angeles Center
11:23PM 33.3206 -117.8089 335° Northwest 422 486 29,000 2,160 Climbing Los Angeles Center
11:24PM 33.4386 -117.8736 335° Northwest 447 514 31,300 2,400 Climbing Los Angeles Center
11:25PM 33.5606 -117.9408 337° Northwest 459 528 33,800 2,400 Climbing Los Angeles Center
11:26PM 33.6767 -118.0008 337° Northwest 465 535 36,200 2,100 Climbing Los Angeles Center
11:27PM 33.7947 -118.0608 335° Northwest 460 529 38,000 900 Climbing Los Angeles Center
11:28PM 33.9106 -118.1261 335° Northwest 460 529 38,000  Level Los Angeles Center
11:29PM 34.0264 -118.1914 334° Northwest 455 524 38,100  Climbing Los Angeles Center
11:30PM 34.1419 -118.2597 335° Northwest 455 524 38,000 -60 Descending Los Angeles Center
11:31PM 34.2556 -118.3228 335° Northwest 455 524 38,000  Level Los Angeles Center
11:32PM 34.3589 -118.3808 336° Northwest 455 524 38,000  Level Los Angeles Center
11:33PM 34.4747 -118.4444 335° Northwest 455 524 38,000  Level Los Angeles Center
11:34PM 34.5922 -118.5108 335° Northwest 455 524 38,000 480 Level Los Angeles Center
11:35PM 34.7078 -118.5772 337° Northwest 455 524 39,000 960 Climbing Los Angeles Center
11:36PM 34.8233 -118.6364 337° Northwest 455 524 40,000 480 Climbing Los Angeles Center
11:37PM 34.9369 -118.6956 337° Northwest 450 518 40,000  Level Los Angeles Center
11:38PM 35.0506 -118.7550 335° Northwest 450 518 40,000  Level Los Angeles Center
11:39PM 35.1658 -118.8197 334° Northwest 450 518 40,000  Level Los Angeles Center
11:40PM 35.2792 -118.8869 335° Northwest 450 518 40,000  Level Los Angeles Center
11:41PM 35.3944 -118.9519 335° Northwest 455 524 40,000  Level Los Angeles Center
11:42PM 35.5100 -119.0172 336° Northwest 455 524 40,000  Level Los Angeles Center
11:43PM 35.6272 -119.0828 334° Northwest 455 524 40,000  Level Los Angeles Center
11:44PM 35.7378 -119.1497 335° Northwest 455 524 40,000  Level Oakland Center
11:45PM 35.8556 -119.2161 330° Northwest 449 517 40,000  Level Oakland Center
11:46PM 35.9653 -119.2931 330° Northwest 449 517 40,000  Level Oakland Center
11:47PM 36.0769 -119.3728 330° Northwest 459 528 40,000  Level Oakland Center
11:48PM 36.1864 -119.4503 330° Northwest 465 535 40,000  Level Oakland Center
11:49PM 36.2958 -119.5281 330° Northwest 460 529 40,000  Level Oakland Center
11:50PM 36.4072 -119.6086 330° Northwest 460 529 40,000  Level Oakland Center
11:51PM 36.5147 -119.6867 331° Northwest 455 524 40,000 -60 Level Oakland Center
11:52PM 36.6261 -119.7650 329° Northwest 450 518 39,900 -600 Descending Oakland Center
11:53PM 36.7375 -119.8489 330° Northwest 450 518 38,900 -960 Descending Oakland Center
11:54PM 36.8486 -119.9275 330° Northwest 450 518 38,000 -540 Descending Oakland Center
11:55PM 36.9600 -120.0092 331° Northwest 450 518 37,900 -1,380 Descending Oakland Center
11:56PM 37.0692 -120.0858 331° Northwest 450 518 35,300 -3,240 Descending Oakland Center
11:57PM 37.1886 -120.1706 330° Northwest 450 518 31,500 -3,900 Descending Oakland Center
11:58PM 37.2956 -120.2478 330° Northwest 450 518 27,600 -3,420 Descending Oakland Center
11:59PM 37.4003 -120.3253 323° Northwest 450 518 24,700 -2,100 Descending Oakland Center
12:00AM 37.4944 -120.4133 322° Northwest 436 502 23,400 -1,260 Descending Oakland Center
12:00AM 37.5667 -120.4833 320° Northwest 400 460 22,600 -1,020 Descending Northern Cal TRACON
12:02AM 37.6642 -120.5853 324° Northwest 395 455 21,400 -1,020 Descending Oakland Center
12:02AM 37.7333 -120.6500 322° Northwest 386 444 20,600 -1,080 Descending Northern Cal TRACON
12:03AM 37.8167 -120.7333 322° Northwest 383 441 19,600 -1,020 Descending Northern Cal TRACON
12:04AM 37.9000 -120.8167 322° Northwest 384 442 18,600 -960 Descending Northern Cal TRACON
12:05AM 37.9833 -120.9000 317° Northwest 386 444 17,700 -1,200 Descending Northern Cal TRACON
12:07AM 38.0758 -121.0078 314° West 380 437 16,000 -900 Descending Oakland Center
12:07AM 38.1333 -121.0833 310° West 373 429 16,000 -600 Level Northern Cal TRACON
12:08AM 38.2000 -121.1833 309° West 371 427 15,000 -1,800 Descending Northern Cal TRACON
12:10AM 38.3167 -121.3667 310° West 350 403 10,600 -1,680 Descending Northern Cal TRACON
12:11AM 38.3833 -121.4667 316° Northwest 343 395 10,000 -300 Descending Northern Cal TRACON
12:12AM 38.4500 -121.5500 328° Northwest 340 391 10,000 -900 Level Northern Cal TRACON
12:13AM 38.5333 -121.6167 330° Northwest 323 372 8,300 -1,800 Descending Northern Cal TRACON
12:14AM 38.6000 -121.6667 339° North 303 349 6,500 -1,560 Descending Northern Cal TRACON
12:15AM 38.6667 -121.7000 349° North 284 327 5,200 -960 Descending Northern Cal TRACON
12:16AM 38.7333 -121.7167 15° North 242 278 4,600 -960 Descending Northern Cal TRACON
12:18AM 38.8333 -121.6833 113° Southeast 192 221 2,400 -960 Descending Northern Cal TRACON
12:19AM 38.8167 -121.6333 142° Southeast 157 181 1,800 -540 Descending Northern Cal TRACON
12:20AM 38.7833 -121.6000 180° South 146 168 1,400 -540 Descending Northern Cal TRACON
12:21AM 38.7500 -121.6000 180° South 125 144 800 -720 Descending Northern Cal TRACON